sensor_id;sensor_type;location;lat;lon;timestamp;P1;durP1;ratioP1;P2;durP2;ratioP2
30398;SDS011;17195;50.838;7.214;2023-08-17T00:01:56;11.50;;;8.77;;
30398;SDS011;17195;50.838;7.214;2023-08-17T00:04:22;11.77;;;8.93;;
30398;SDS011;17195;50.838;7.214;2023-08-17T00:06:47;9.35;;;8.45;;
30398;SDS011;17195;50.838;7.214;2023-08-17T00:09:13;12.32;;;7.90;;
30398;SDS011;17195;50.838;7.214;2023-08-17T00:11:39;11.23;;;8.15;;
30398;SDS011;17195;50.838;7.214;2023-08-17T00:14:05;11.80;;;7.85;;
30398;SDS011;17195;50.838;7.214;2023-08-17T00:16:30;10.15;;;7.38;;
30398;SDS011;17195;50.838;7.214;2023-08-17T00:18:56;13.65;;;7.95;;
30398;SDS011;17195;50.838;7.214;2023-08-17T00:21:22;9.32;;;7.00;;
30398;SDS011;17195;50.838;7.214;2023-08-17T00:23:47;9.80;;;7.95;;
30398;SDS011;17195;50.838;7.214;2023-08-17T00:26:14;12.30;;;7.20;;
30398;SDS011;17195;50.838;7.214;2023-08-17T00:28:39;9.70;;;6.97;;
30398;SDS011;17195;50.838;7.214;2023-08-17T00:31:05;13.13;;;7.60;;
30398;SDS011;17195;50.838;7.214;2023-08-17T00:33:30;6.82;;;6.13;;
30398;SDS011;17195;50.838;7.214;2023-08-17T00:35:56;10.57;;;6.65;;
30398;SDS011;17195;50.838;7.214;2023-08-17T00:38:21;9.70;;;7.03;;
30398;SDS011;17195;50.838;7.214;2023-08-17T00:40:47;15.38;;;6.75;;
30398;SDS011;17195;50.838;7.214;2023-08-17T00:43:13;9.25;;;6.82;;
30398;SDS011;17195;50.838;7.214;2023-08-17T00:45:38;10.60;;;7.60;;
30398;SDS011;17195;50.838;7.214;2023-08-17T00:48:05;9.68;;;7.82;;
30398;SDS011;17195;50.838;7.214;2023-08-17T00:50:32;10.68;;;8.15;;
30398;SDS011;17195;50.838;7.214;2023-08-17T00:52:59;12.05;;;8.32;;
30398;SDS011;17195;50.838;7.214;2023-08-17T00:55:25;9.13;;;7.32;;
30398;SDS011;17195;50.838;7.214;2023-08-17T00:57:51;8.00;;;6.80;;
30398;SDS011;17195;50.838;7.214;2023-08-17T01:00:18;8.65;;;6.20;;
30398;SDS011;17195;50.838;7.214;2023-08-17T01:02:45;6.82;;;5.65;;
30398;SDS011;17195;50.838;7.214;2023-08-17T01:05:11;6.18;;;4.57;;
30398;SDS011;17195;50.838;7.214;2023-08-17T01:07:37;5.82;;;4.97;;
30398;SDS011;17195;50.838;7.214;2023-08-17T01:10:04;5.93;;;4.57;;
30398;SDS011;17195;50.838;7.214;2023-08-17T01:12:36;5.45;;;4.53;;
30398;SDS011;17195;50.838;7.214;2023-08-17T01:15:31;7.32;;;4.82;;
30398;SDS011;17195;50.838;7.214;2023-08-17T01:18:15;6.55;;;4.63;;
30398;SDS011;17195;50.838;7.214;2023-08-17T01:20:50;6.75;;;4.57;;
30398;SDS011;17195;50.838;7.214;2023-08-17T01:23:18;7.47;;;4.88;;
30398;SDS011;17195;50.838;7.214;2023-08-17T01:25:44;6.55;;;4.80;;
30398;SDS011;17195;50.838;7.214;2023-08-17T01:28:09;5.93;;;4.53;;
30398;SDS011;17195;50.838;7.214;2023-08-17T01:30:57;4.93;;;4.43;;
30398;SDS011;17195;50.838;7.214;2023-08-17T01:36:37;8.00;;;5.85;;
30398;SDS011;17195;50.838;7.214;2023-08-17T01:39:08;5.80;;;5.18;;
30398;SDS011;17195;50.838;7.214;2023-08-17T01:41:34;12.00;;;6.20;;
30398;SDS011;17195;50.838;7.214;2023-08-17T01:44:02;6.78;;;5.05;;
30398;SDS011;17195;50.838;7.214;2023-08-17T01:46:32;8.60;;;5.57;;
30398;SDS011;17195;50.838;7.214;2023-08-17T01:48:58;6.93;;;5.65;;
30398;SDS011;17195;50.838;7.214;2023-08-17T01:51:24;10.02;;;6.45;;
30398;SDS011;17195;50.838;7.214;2023-08-17T01:53:50;10.75;;;6.88;;
30398;SDS011;17195;50.838;7.214;2023-08-17T01:56:16;14.20;;;7.88;;
30398;SDS011;17195;50.838;7.214;2023-08-17T01:58:41;17.60;;;9.88;;
30398;SDS011;17195;50.838;7.214;2023-08-17T02:01:07;14.60;;;8.93;;
30398;SDS011;17195;50.838;7.214;2023-08-17T02:03:32;14.05;;;9.75;;
30398;SDS011;17195;50.838;7.214;2023-08-17T02:05:58;13.68;;;8.75;;
30398;SDS011;17195;50.838;7.214;2023-08-17T02:08:24;18.13;;;10.90;;
30398;SDS011;17195;50.838;7.214;2023-08-17T02:10:50;20.00;;;10.95;;
30398;SDS011;17195;50.838;7.214;2023-08-17T02:13:16;21.33;;;11.35;;
30398;SDS011;17195;50.838;7.214;2023-08-17T02:15:43;22.58;;;11.85;;
30398;SDS011;17195;50.838;7.214;2023-08-17T02:18:08;18.75;;;10.75;;
30398;SDS011;17195;50.838;7.214;2023-08-17T02:20:34;16.63;;;10.45;;
30398;SDS011;17195;50.838;7.214;2023-08-17T02:23:00;12.43;;;9.57;;
30398;SDS011;17195;50.838;7.214;2023-08-17T02:25:26;12.13;;;8.68;;
30398;SDS011;17195;50.838;7.214;2023-08-17T02:27:52;15.38;;;9.15;;
30398;SDS011;17195;50.838;7.214;2023-08-17T02:30:18;11.75;;;8.70;;
30398;SDS011;17195;50.838;7.214;2023-08-17T02:32:43;14.77;;;9.23;;
30398;SDS011;17195;50.838;7.214;2023-08-17T02:35:09;12.15;;;7.80;;
30398;SDS011;17195;50.838;7.214;2023-08-17T02:37:35;10.80;;;7.13;;
30398;SDS011;17195;50.838;7.214;2023-08-17T02:40:00;10.15;;;8.10;;
30398;SDS011;17195;50.838;7.214;2023-08-17T02:42:26;10.30;;;7.90;;
30398;SDS011;17195;50.838;7.214;2023-08-17T02:44:51;11.10;;;7.38;;
30398;SDS011;17195;50.838;7.214;2023-08-17T02:47:17;11.52;;;7.63;;
30398;SDS011;17195;50.838;7.214;2023-08-17T02:49:43;9.15;;;7.30;;
30398;SDS011;17195;50.838;7.214;2023-08-17T02:52:08;9.05;;;7.28;;
30398;SDS011;17195;50.838;7.214;2023-08-17T02:54:34;9.30;;;7.05;;
30398;SDS011;17195;50.838;7.214;2023-08-17T02:56:59;9.63;;;6.95;;
30398;SDS011;17195;50.838;7.214;2023-08-17T02:59:25;10.10;;;6.70;;
30398;SDS011;17195;50.838;7.214;2023-08-17T03:01:50;8.68;;;7.30;;
30398;SDS011;17195;50.838;7.214;2023-08-17T03:04:16;8.23;;;6.40;;
30398;SDS011;17195;50.838;7.214;2023-08-17T03:06:41;9.88;;;7.05;;
30398;SDS011;17195;50.838;7.214;2023-08-17T03:09:07;10.70;;;8.05;;
30398;SDS011;17195;50.838;7.214;2023-08-17T03:11:32;11.00;;;7.72;;
30398;SDS011;17195;50.838;7.214;2023-08-17T03:13:58;10.82;;;7.88;;
30398;SDS011;17195;50.838;7.214;2023-08-17T03:16:26;8.55;;;6.25;;
30398;SDS011;17195;50.838;7.214;2023-08-17T03:18:52;9.70;;;7.50;;
30398;SDS011;17195;50.838;7.214;2023-08-17T03:21:18;7.57;;;6.68;;
30398;SDS011;17195;50.838;7.214;2023-08-17T03:23:44;9.10;;;7.40;;
30398;SDS011;17195;50.838;7.214;2023-08-17T03:26:10;13.32;;;9.07;;
30398;SDS011;17195;50.838;7.214;2023-08-17T03:28:35;15.38;;;8.63;;
30398;SDS011;17195;50.838;7.214;2023-08-17T03:31:01;13.43;;;10.48;;
30398;SDS011;17195;50.838;7.214;2023-08-17T03:33:27;10.75;;;9.25;;
30398;SDS011;17195;50.838;7.214;2023-08-17T03:35:53;19.05;;;11.30;;
30398;SDS011;17195;50.838;7.214;2023-08-17T03:38:19;25.60;;;13.82;;
30398;SDS011;17195;50.838;7.214;2023-08-17T03:40:44;22.27;;;12.63;;
30398;SDS011;17195;50.838;7.214;2023-08-17T03:43:11;25.52;;;13.07;;
30398;SDS011;17195;50.838;7.214;2023-08-17T03:45:37;23.48;;;14.65;;
30398;SDS011;17195;50.838;7.214;2023-08-17T03:48:03;32.05;;;16.35;;
30398;SDS011;17195;50.838;7.214;2023-08-17T03:50:29;30.77;;;16.17;;
30398;SDS011;17195;50.838;7.214;2023-08-17T03:52:54;19.80;;;13.25;;
30398;SDS011;17195;50.838;7.214;2023-08-17T03:55:20;17.30;;;11.05;;
30398;SDS011;17195;50.838;7.214;2023-08-17T03:57:45;12.93;;;8.85;;
30398;SDS011;17195;50.838;7.214;2023-08-17T04:00:11;11.40;;;8.60;;
30398;SDS011;17195;50.838;7.214;2023-08-17T04:02:37;14.65;;;8.70;;
30398;SDS011;17195;50.838;7.214;2023-08-17T04:05:02;11.27;;;9.35;;
30398;SDS011;17195;50.838;7.214;2023-08-17T04:07:28;11.18;;;9.20;;
30398;SDS011;17195;50.838;7.214;2023-08-17T04:09:54;11.98;;;7.80;;
30398;SDS011;17195;50.838;7.214;2023-08-17T04:12:19;12.02;;;8.57;;
30398;SDS011;17195;50.838;7.214;2023-08-17T04:14:45;12.15;;;7.70;;
30398;SDS011;17195;50.838;7.214;2023-08-17T04:17:11;12.70;;;8.60;;
30398;SDS011;17195;50.838;7.214;2023-08-17T04:19:37;12.20;;;8.30;;
30398;SDS011;17195;50.838;7.214;2023-08-17T04:22:02;14.15;;;8.55;;
30398;SDS011;17195;50.838;7.214;2023-08-17T04:24:28;10.80;;;8.60;;
30398;SDS011;17195;50.838;7.214;2023-08-17T04:26:54;12.75;;;8.13;;
30398;SDS011;17195;50.838;7.214;2023-08-17T04:29:20;10.70;;;9.02;;
30398;SDS011;17195;50.838;7.214;2023-08-17T04:31:45;9.57;;;8.57;;
30398;SDS011;17195;50.838;7.214;2023-08-17T04:34:11;9.98;;;7.22;;
30398;SDS011;17195;50.838;7.214;2023-08-17T04:36:36;11.30;;;6.68;;
30398;SDS011;17195;50.838;7.214;2023-08-17T04:39:02;12.15;;;8.88;;
30398;SDS011;17195;50.838;7.214;2023-08-17T04:41:29;8.75;;;7.18;;
30398;SDS011;17195;50.838;7.214;2023-08-17T04:43:55;12.45;;;7.82;;
30398;SDS011;17195;50.838;7.214;2023-08-17T04:46:20;9.77;;;8.07;;
30398;SDS011;17195;50.838;7.214;2023-08-17T04:48:46;10.77;;;7.82;;
30398;SDS011;17195;50.838;7.214;2023-08-17T04:51:11;9.55;;;7.63;;
30398;SDS011;17195;50.838;7.214;2023-08-17T04:53:37;8.30;;;6.80;;
30398;SDS011;17195;50.838;7.214;2023-08-17T04:56:03;11.60;;;7.63;;
30398;SDS011;17195;50.838;7.214;2023-08-17T04:58:29;7.80;;;6.38;;
30398;SDS011;17195;50.838;7.214;2023-08-17T05:00:55;8.70;;;6.95;;
30398;SDS011;17195;50.838;7.214;2023-08-17T05:03:20;8.68;;;7.78;;
30398;SDS011;17195;50.838;7.214;2023-08-17T05:05:46;10.95;;;6.75;;
30398;SDS011;17195;50.838;7.214;2023-08-17T05:08:11;10.20;;;6.93;;
30398;SDS011;17195;50.838;7.214;2023-08-17T05:10:38;11.68;;;7.25;;
30398;SDS011;17195;50.838;7.214;2023-08-17T05:13:04;11.48;;;7.75;;
30398;SDS011;17195;50.838;7.214;2023-08-17T05:15:29;7.68;;;6.32;;
30398;SDS011;17195;50.838;7.214;2023-08-17T05:17:55;11.55;;;7.78;;
30398;SDS011;17195;50.838;7.214;2023-08-17T05:20:21;12.95;;;8.00;;
30398;SDS011;17195;50.838;7.214;2023-08-17T05:22:47;11.90;;;6.82;;
30398;SDS011;17195;50.838;7.214;2023-08-17T05:25:12;10.75;;;7.50;;
30398;SDS011;17195;50.838;7.214;2023-08-17T05:27:38;10.35;;;7.60;;
30398;SDS011;17195;50.838;7.214;2023-08-17T05:30:04;12.32;;;8.32;;
30398;SDS011;17195;50.838;7.214;2023-08-17T05:32:30;13.95;;;8.50;;
30398;SDS011;17195;50.838;7.214;2023-08-17T05:34:56;9.18;;;7.22;;
30398;SDS011;17195;50.838;7.214;2023-08-17T05:37:22;14.25;;;7.22;;
30398;SDS011;17195;50.838;7.214;2023-08-17T05:39:47;16.88;;;6.93;;
30398;SDS011;17195;50.838;7.214;2023-08-17T05:42:13;18.50;;;8.13;;
30398;SDS011;17195;50.838;7.214;2023-08-17T05:44:38;12.70;;;8.07;;
30398;SDS011;17195;50.838;7.214;2023-08-17T05:47:04;11.90;;;6.85;;
30398;SDS011;17195;50.838;7.214;2023-08-17T05:49:30;12.75;;;8.00;;
30398;SDS011;17195;50.838;7.214;2023-08-17T05:51:55;13.82;;;9.18;;
30398;SDS011;17195;50.838;7.214;2023-08-17T05:54:21;17.23;;;8.75;;
30398;SDS011;17195;50.838;7.214;2023-08-17T05:56:46;17.30;;;9.18;;
30398;SDS011;17195;50.838;7.214;2023-08-17T05:59:12;9.20;;;7.38;;
30398;SDS011;17195;50.838;7.214;2023-08-17T06:01:38;9.85;;;8.32;;
30398;SDS011;17195;50.838;7.214;2023-08-17T06:04:05;16.27;;;7.45;;
30398;SDS011;17195;50.838;7.214;2023-08-17T06:06:31;13.25;;;8.35;;
30398;SDS011;17195;50.838;7.214;2023-08-17T06:08:56;13.02;;;8.73;;
30398;SDS011;17195;50.838;7.214;2023-08-17T06:11:22;12.27;;;8.13;;
30398;SDS011;17195;50.838;7.214;2023-08-17T06:13:48;10.00;;;8.80;;
30398;SDS011;17195;50.838;7.214;2023-08-17T06:16:14;8.43;;;7.57;;
30398;SDS011;17195;50.838;7.214;2023-08-17T06:18:40;8.63;;;6.45;;
30398;SDS011;17195;50.838;7.214;2023-08-17T06:21:06;10.85;;;6.68;;
30398;SDS011;17195;50.838;7.214;2023-08-17T06:23:32;7.60;;;6.80;;
30398;SDS011;17195;50.838;7.214;2023-08-17T06:25:58;9.90;;;6.90;;
30398;SDS011;17195;50.838;7.214;2023-08-17T06:28:24;11.18;;;6.85;;
30398;SDS011;17195;50.838;7.214;2023-08-17T06:30:56;8.68;;;6.35;;
30398;SDS011;17195;50.838;7.214;2023-08-17T06:33:22;9.48;;;7.20;;
30398;SDS011;17195;50.838;7.214;2023-08-17T06:35:48;7.25;;;6.38;;
30398;SDS011;17195;50.838;7.214;2023-08-17T06:38:14;7.60;;;6.43;;
30398;SDS011;17195;50.838;7.214;2023-08-17T06:40:39;8.88;;;6.70;;
30398;SDS011;17195;50.838;7.214;2023-08-17T06:43:05;7.07;;;5.47;;
30398;SDS011;17195;50.838;7.214;2023-08-17T06:45:31;7.53;;;6.10;;
30398;SDS011;17195;50.838;7.214;2023-08-17T06:47:57;9.93;;;7.35;;
30398;SDS011;17195;50.838;7.214;2023-08-17T06:50:22;9.15;;;7.47;;
30398;SDS011;17195;50.838;7.214;2023-08-17T06:52:48;12.27;;;6.75;;
30398;SDS011;17195;50.838;7.214;2023-08-17T06:55:13;8.13;;;6.53;;
30398;SDS011;17195;50.838;7.214;2023-08-17T06:57:40;8.23;;;5.65;;
30398;SDS011;17195;50.838;7.214;2023-08-17T07:00:06;8.05;;;6.40;;
30398;SDS011;17195;50.838;7.214;2023-08-17T07:02:33;7.50;;;6.72;;
30398;SDS011;17195;50.838;7.214;2023-08-17T07:04:59;8.90;;;6.00;;
30398;SDS011;17195;50.838;7.214;2023-08-17T07:07:25;12.27;;;7.30;;
30398;SDS011;17195;50.838;7.214;2023-08-17T07:09:50;8.52;;;6.03;;
30398;SDS011;17195;50.838;7.214;2023-08-17T07:12:16;7.13;;;6.20;;
30398;SDS011;17195;50.838;7.214;2023-08-17T07:14:41;9.68;;;7.20;;
30398;SDS011;17195;50.838;7.214;2023-08-17T07:17:07;10.00;;;6.47;;
30398;SDS011;17195;50.838;7.214;2023-08-17T07:19:32;11.07;;;6.78;;
30398;SDS011;17195;50.838;7.214;2023-08-17T07:21:58;10.63;;;7.15;;
30398;SDS011;17195;50.838;7.214;2023-08-17T07:24:23;11.02;;;6.40;;
30398;SDS011;17195;50.838;7.214;2023-08-17T07:26:49;7.80;;;5.57;;
30398;SDS011;17195;50.838;7.214;2023-08-17T07:29:15;11.32;;;7.95;;
30398;SDS011;17195;50.838;7.214;2023-08-17T07:31:40;12.38;;;7.15;;
30398;SDS011;17195;50.838;7.214;2023-08-17T07:34:06;12.02;;;7.25;;
30398;SDS011;17195;50.838;7.214;2023-08-17T07:36:32;8.68;;;7.53;;
30398;SDS011;17195;50.838;7.214;2023-08-17T07:38:58;12.65;;;7.88;;
30398;SDS011;17195;50.838;7.214;2023-08-17T07:41:24;9.32;;;7.85;;
30398;SDS011;17195;50.838;7.214;2023-08-17T07:43:50;13.23;;;7.97;;
30398;SDS011;17195;50.838;7.214;2023-08-17T07:46:15;12.80;;;7.43;;
30398;SDS011;17195;50.838;7.214;2023-08-17T07:48:41;8.65;;;6.40;;
30398;SDS011;17195;50.838;7.214;2023-08-17T07:51:06;7.90;;;7.03;;
30398;SDS011;17195;50.838;7.214;2023-08-17T07:53:32;9.35;;;5.72;;
30398;SDS011;17195;50.838;7.214;2023-08-17T07:55:58;11.88;;;6.00;;
30398;SDS011;17195;50.838;7.214;2023-08-17T07:58:23;10.23;;;6.28;;
30398;SDS011;17195;50.838;7.214;2023-08-17T08:00:49;11.38;;;7.53;;
30398;SDS011;17195;50.838;7.214;2023-08-17T08:03:14;12.00;;;7.30;;
30398;SDS011;17195;50.838;7.214;2023-08-17T08:05:40;9.32;;;6.72;;
30398;SDS011;17195;50.838;7.214;2023-08-17T08:08:06;6.72;;;5.70;;
30398;SDS011;17195;50.838;7.214;2023-08-17T08:10:31;7.95;;;5.43;;
30398;SDS011;17195;50.838;7.214;2023-08-17T08:12:57;8.65;;;5.97;;
30398;SDS011;17195;50.838;7.214;2023-08-17T08:15:22;8.30;;;5.25;;
30398;SDS011;17195;50.838;7.214;2023-08-17T08:17:48;8.32;;;4.78;;
30398;SDS011;17195;50.838;7.214;2023-08-17T08:20:14;8.38;;;4.80;;
30398;SDS011;17195;50.838;7.214;2023-08-17T08:22:39;12.00;;;4.40;;
30398;SDS011;17195;50.838;7.214;2023-08-17T08:25:05;8.35;;;5.03;;
30398;SDS011;17195;50.838;7.214;2023-08-17T08:27:30;7.75;;;4.28;;
30398;SDS011;17195;50.838;7.214;2023-08-17T08:29:56;6.18;;;3.97;;
30398;SDS011;17195;50.838;7.214;2023-08-17T08:32:22;4.15;;;3.40;;
30398;SDS011;17195;50.838;7.214;2023-08-17T08:34:48;10.40;;;4.32;;
30398;SDS011;17195;50.838;7.214;2023-08-17T08:37:13;4.47;;;3.58;;
30398;SDS011;17195;50.838;7.214;2023-08-17T08:39:48;6.65;;;2.70;;
30398;SDS011;17195;50.838;7.214;2023-08-17T08:42:16;3.92;;;2.20;;
30398;SDS011;17195;50.838;7.214;2023-08-17T08:44:42;2.00;;;1.80;;
30398;SDS011;17195;50.838;7.214;2023-08-17T08:47:07;4.20;;;2.67;;
30398;SDS011;17195;50.838;7.214;2023-08-17T08:49:34;2.78;;;1.70;;
30398;SDS011;17195;50.838;7.214;2023-08-17T08:52:03;2.20;;;1.60;;
30398;SDS011;17195;50.838;7.214;2023-08-17T08:54:32;3.80;;;1.80;;
30398;SDS011;17195;50.838;7.214;2023-08-17T08:57:03;2.88;;;1.80;;
30398;SDS011;17195;50.838;7.214;2023-08-17T08:59:33;1.85;;;1.73;;
30398;SDS011;17195;50.838;7.214;2023-08-17T09:01:59;3.03;;;1.75;;
30398;SDS011;17195;50.838;7.214;2023-08-17T09:04:25;3.00;;;1.95;;
30398;SDS011;17195;50.838;7.214;2023-08-17T09:06:51;3.90;;;2.95;;
30398;SDS011;17195;50.838;7.214;2023-08-17T09:09:18;3.30;;;3.00;;
30398;SDS011;17195;50.838;7.214;2023-08-17T09:11:44;3.70;;;2.92;;
30398;SDS011;17195;50.838;7.214;2023-08-17T09:14:09;4.75;;;2.70;;
30398;SDS011;17195;50.838;7.214;2023-08-17T09:16:35;6.03;;;3.65;;
30398;SDS011;17195;50.838;7.214;2023-08-17T09:19:01;7.13;;;3.65;;
30398;SDS011;17195;50.838;7.214;2023-08-17T09:21:30;3.78;;;3.22;;
30398;SDS011;17195;50.838;7.214;2023-08-17T09:23:57;7.90;;;3.15;;
30398;SDS011;17195;50.838;7.214;2023-08-17T09:26:22;4.00;;;3.10;;
30398;SDS011;17195;50.838;7.214;2023-08-17T09:28:49;4.30;;;3.13;;
30398;SDS011;17195;50.838;7.214;2023-08-17T09:31:22;4.30;;;3.13;;
30398;SDS011;17195;50.838;7.214;2023-08-17T09:33:51;6.80;;;3.88;;
30398;SDS011;17195;50.838;7.214;2023-08-17T09:36:21;6.35;;;3.33;;
30398;SDS011;17195;50.838;7.214;2023-08-17T09:38:51;7.60;;;3.55;;
30398;SDS011;17195;50.838;7.214;2023-08-17T09:41:19;5.80;;;3.00;;
30398;SDS011;17195;50.838;7.214;2023-08-17T09:43:45;4.10;;;3.25;;
30398;SDS011;17195;50.838;7.214;2023-08-17T09:46:11;3.88;;;3.50;;
30398;SDS011;17195;50.838;7.214;2023-08-17T09:48:37;6.28;;;3.58;;
30398;SDS011;17195;50.838;7.214;2023-08-17T09:51:03;4.32;;;3.30;;
30398;SDS011;17195;50.838;7.214;2023-08-17T09:53:33;7.43;;;4.75;;
30398;SDS011;17195;50.838;7.214;2023-08-17T09:56:01;5.50;;;4.78;;
30398;SDS011;17195;50.838;7.214;2023-08-17T09:58:27;6.38;;;4.18;;
30398;SDS011;17195;50.838;7.214;2023-08-17T10:00:52;6.65;;;4.10;;
30398;SDS011;17195;50.838;7.214;2023-08-17T10:03:19;6.07;;;3.55;;
30398;SDS011;17195;50.838;7.214;2023-08-17T10:05:47;5.70;;;4.22;;
30398;SDS011;17195;50.838;7.214;2023-08-17T10:08:19;4.60;;;3.78;;
30398;SDS011;17195;50.838;7.214;2023-08-17T10:10:45;8.13;;;3.97;;
30398;SDS011;17195;50.838;7.214;2023-08-17T10:13:12;6.97;;;4.38;;
30398;SDS011;17195;50.838;7.214;2023-08-17T10:18:36;5.47;;;4.18;;
30398;SDS011;17195;50.838;7.214;2023-08-17T10:21:10;7.75;;;4.32;;
30398;SDS011;17195;50.838;7.214;2023-08-17T10:23:38;12.25;;;5.63;;
30398;SDS011;17195;50.838;7.214;2023-08-17T10:26:04;9.77;;;4.22;;
30398;SDS011;17195;50.838;7.214;2023-08-17T10:28:32;6.88;;;5.05;;
30398;SDS011;17195;50.838;7.214;2023-08-17T10:30:59;8.23;;;4.22;;
30398;SDS011;17195;50.838;7.214;2023-08-17T10:33:25;10.40;;;4.60;;
30398;SDS011;17195;50.838;7.214;2023-08-17T10:35:51;9.85;;;4.50;;
30398;SDS011;17195;50.838;7.214;2023-08-17T10:38:17;5.78;;;4.10;;
30398;SDS011;17195;50.838;7.214;2023-08-17T10:40:43;5.50;;;3.25;;
30398;SDS011;17195;50.838;7.214;2023-08-17T10:43:09;6.00;;;3.60;;
30398;SDS011;17195;50.838;7.214;2023-08-17T10:45:36;7.60;;;3.85;;
30398;SDS011;17195;50.838;7.214;2023-08-17T10:50:32;6.25;;;3.90;;
30398;SDS011;17195;50.838;7.214;2023-08-17T10:52:59;5.47;;;3.50;;
30398;SDS011;17195;50.838;7.214;2023-08-17T10:55:44;4.32;;;3.60;;
30398;SDS011;17195;50.838;7.214;2023-08-17T10:58:10;6.05;;;3.45;;
30398;SDS011;17195;50.838;7.214;2023-08-17T11:00:39;5.00;;;3.40;;
30398;SDS011;17195;50.838;7.214;2023-08-17T11:03:07;5.75;;;3.53;;
30398;SDS011;17195;50.838;7.214;2023-08-17T11:08:05;8.55;;;4.07;;
30398;SDS011;17195;50.838;7.214;2023-08-17T11:10:34;6.63;;;3.80;;
30398;SDS011;17195;50.838;7.214;2023-08-17T11:13:00;5.05;;;2.92;;
30398;SDS011;17195;50.838;7.214;2023-08-17T11:15:34;3.60;;;3.30;;
30398;SDS011;17195;50.838;7.214;2023-08-17T11:18:08;4.43;;;3.65;;
30398;SDS011;17195;50.838;7.214;2023-08-17T11:20:35;9.05;;;3.95;;
30398;SDS011;17195;50.838;7.214;2023-08-17T11:23:02;5.18;;;3.78;;
30398;SDS011;17195;50.838;7.214;2023-08-17T11:25:29;4.78;;;3.67;;
30398;SDS011;17195;50.838;7.214;2023-08-17T11:27:57;6.68;;;3.75;;
30398;SDS011;17195;50.838;7.214;2023-08-17T11:30:24;4.72;;;3.60;;
30398;SDS011;17195;50.838;7.214;2023-08-17T11:32:51;10.20;;;3.88;;
30398;SDS011;17195;50.838;7.214;2023-08-17T11:35:17;5.97;;;3.63;;
30398;SDS011;17195;50.838;7.214;2023-08-17T11:37:43;4.85;;;3.95;;
30398;SDS011;17195;50.838;7.214;2023-08-17T11:40:10;6.63;;;4.20;;
30398;SDS011;17195;50.838;7.214;2023-08-17T11:42:37;4.90;;;3.45;;
30398;SDS011;17195;50.838;7.214;2023-08-17T11:45:03;6.95;;;3.65;;
30398;SDS011;17195;50.838;7.214;2023-08-17T11:47:30;4.10;;;3.70;;
30398;SDS011;17195;50.838;7.214;2023-08-17T11:50:00;6.72;;;4.43;;
30398;SDS011;17195;50.838;7.214;2023-08-17T11:52:26;5.38;;;3.80;;
30398;SDS011;17195;50.838;7.214;2023-08-17T11:54:56;5.00;;;3.78;;
30398;SDS011;17195;50.838;7.214;2023-08-17T11:57:21;4.10;;;3.70;;
30398;SDS011;17195;50.838;7.214;2023-08-17T11:59:47;3.55;;;3.20;;
30398;SDS011;17195;50.838;7.214;2023-08-17T12:02:13;4.45;;;3.88;;
30398;SDS011;17195;50.838;7.214;2023-08-17T12:04:38;4.32;;;3.75;;
30398;SDS011;17195;50.838;7.214;2023-08-17T12:07:04;5.20;;;3.35;;
30398;SDS011;17195;50.838;7.214;2023-08-17T12:09:33;6.82;;;3.80;;
30398;SDS011;17195;50.838;7.214;2023-08-17T12:11:59;4.78;;;4.15;;
30398;SDS011;17195;50.838;7.214;2023-08-17T12:14:26;4.60;;;4.20;;
30398;SDS011;17195;50.838;7.214;2023-08-17T12:16:52;7.85;;;3.80;;
30398;SDS011;17195;50.838;7.214;2023-08-17T12:19:21;6.22;;;3.63;;
30398;SDS011;17195;50.838;7.214;2023-08-17T12:21:49;4.63;;;3.47;;
30398;SDS011;17195;50.838;7.214;2023-08-17T12:24:15;4.50;;;3.33;;
30398;SDS011;17195;50.838;7.214;2023-08-17T12:26:44;5.05;;;3.47;;
30398;SDS011;17195;50.838;7.214;2023-08-17T12:29:11;3.67;;;3.35;;
30398;SDS011;17195;50.838;7.214;2023-08-17T12:31:37;4.28;;;3.85;;
30398;SDS011;17195;50.838;7.214;2023-08-17T12:34:02;4.50;;;3.70;;
30398;SDS011;17195;50.838;7.214;2023-08-17T12:36:29;4.82;;;3.55;;
30398;SDS011;17195;50.838;7.214;2023-08-17T12:38:55;5.60;;;3.20;;
30398;SDS011;17195;50.838;7.214;2023-08-17T12:41:20;4.45;;;3.90;;
30398;SDS011;17195;50.838;7.214;2023-08-17T12:43:46;5.82;;;3.72;;
30398;SDS011;17195;50.838;7.214;2023-08-17T12:46:12;6.15;;;4.47;;
30398;SDS011;17195;50.838;7.214;2023-08-17T12:48:38;4.50;;;3.97;;
30398;SDS011;17195;50.838;7.214;2023-08-17T12:51:03;4.30;;;3.83;;
30398;SDS011;17195;50.838;7.214;2023-08-17T12:53:29;4.47;;;3.80;;
30398;SDS011;17195;50.838;7.214;2023-08-17T12:55:55;5.25;;;3.97;;
30398;SDS011;17195;50.838;7.214;2023-08-17T12:58:20;3.90;;;3.60;;
30398;SDS011;17195;50.838;7.214;2023-08-17T13:00:46;4.07;;;3.67;;
30398;SDS011;17195;50.838;7.214;2023-08-17T13:03:15;4.28;;;3.88;;
30398;SDS011;17195;50.838;7.214;2023-08-17T13:05:40;7.00;;;3.83;;
30398;SDS011;17195;50.838;7.214;2023-08-17T13:08:06;5.05;;;4.15;;
30398;SDS011;17195;50.838;7.214;2023-08-17T13:10:33;5.93;;;4.07;;
30398;SDS011;17195;50.838;7.214;2023-08-17T13:12:59;4.78;;;3.83;;
30398;SDS011;17195;50.838;7.214;2023-08-17T13:15:24;4.30;;;3.80;;
30398;SDS011;17195;50.838;7.214;2023-08-17T13:17:50;4.22;;;3.10;;
30398;SDS011;17195;50.838;7.214;2023-08-17T13:20:16;4.72;;;3.65;;
30398;SDS011;17195;50.838;7.214;2023-08-17T13:22:41;5.88;;;3.72;;
30398;SDS011;17195;50.838;7.214;2023-08-17T13:25:07;4.82;;;3.97;;
30398;SDS011;17195;50.838;7.214;2023-08-17T13:27:33;5.03;;;3.92;;
30398;SDS011;17195;50.838;7.214;2023-08-17T13:29:58;4.20;;;3.80;;
30398;SDS011;17195;50.838;7.214;2023-08-17T13:32:24;7.07;;;3.53;;
30398;SDS011;17195;50.838;7.214;2023-08-17T13:34:50;6.13;;;3.35;;
30398;SDS011;17195;50.838;7.214;2023-08-17T13:37:16;6.28;;;3.70;;
30398;SDS011;17195;50.838;7.214;2023-08-17T13:39:42;4.05;;;3.58;;
30398;SDS011;17195;50.838;7.214;2023-08-17T13:42:08;4.45;;;3.47;;
30398;SDS011;17195;50.838;7.214;2023-08-17T13:44:33;4.22;;;3.53;;
30398;SDS011;17195;50.838;7.214;2023-08-17T13:46:59;4.22;;;3.60;;
30398;SDS011;17195;50.838;7.214;2023-08-17T13:49:25;4.28;;;3.20;;
30398;SDS011;17195;50.838;7.214;2023-08-17T13:51:50;3.70;;;3.40;;
30398;SDS011;17195;50.838;7.214;2023-08-17T13:54:16;5.32;;;3.40;;
30398;SDS011;17195;50.838;7.214;2023-08-17T13:56:41;3.63;;;3.33;;
30398;SDS011;17195;50.838;7.214;2023-08-17T13:59:07;4.22;;;3.40;;
30398;SDS011;17195;50.838;7.214;2023-08-17T14:01:32;5.97;;;3.53;;
30398;SDS011;17195;50.838;7.214;2023-08-17T14:03:58;5.78;;;3.72;;
30398;SDS011;17195;50.838;7.214;2023-08-17T14:06:24;6.22;;;4.10;;
30398;SDS011;17195;50.838;7.214;2023-08-17T14:08:49;3.65;;;3.35;;
30398;SDS011;17195;50.838;7.214;2023-08-17T14:11:16;5.07;;;3.70;;
30398;SDS011;17195;50.838;7.214;2023-08-17T14:13:41;5.45;;;4.20;;
30398;SDS011;17195;50.838;7.214;2023-08-17T14:16:07;4.85;;;3.30;;
30398;SDS011;17195;50.838;7.214;2023-08-17T14:18:32;3.33;;;3.03;;
30398;SDS011;17195;50.838;7.214;2023-08-17T14:20:58;3.80;;;3.28;;
30398;SDS011;17195;50.838;7.214;2023-08-17T14:23:24;6.63;;;4.47;;
30398;SDS011;17195;50.838;7.214;2023-08-17T14:25:49;6.55;;;4.10;;
30398;SDS011;17195;50.838;7.214;2023-08-17T14:28:17;4.57;;;3.75;;
30398;SDS011;17195;50.838;7.214;2023-08-17T14:30:42;5.32;;;3.30;;
30398;SDS011;17195;50.838;7.214;2023-08-17T14:33:08;4.50;;;3.40;;
30398;SDS011;17195;50.838;7.214;2023-08-17T14:35:33;3.78;;;3.47;;
30398;SDS011;17195;50.838;7.214;2023-08-17T14:37:59;4.30;;;3.50;;
30398;SDS011;17195;50.838;7.214;2023-08-17T14:40:26;5.68;;;3.35;;
30398;SDS011;17195;50.838;7.214;2023-08-17T14:42:52;6.60;;;3.97;;
30398;SDS011;17195;50.838;7.214;2023-08-17T14:45:17;5.63;;;3.50;;
30398;SDS011;17195;50.838;7.214;2023-08-17T14:47:43;3.85;;;3.53;;
30398;SDS011;17195;50.838;7.214;2023-08-17T14:50:08;3.70;;;3.17;;